createdAt,value
2019-01-20T00:00:35.699Z,44.10
2019-01-20T00:01:35.623Z,41.60
2019-01-20T00:02:35.550Z,45.90
2019-01-20T00:03:35.477Z,47.10
2019-01-20T00:04:35.993Z,47.30
2019-01-20T00:05:35.333Z,46.00
2019-01-20T00:06:35.261Z,45.10
2019-01-20T00:07:35.188Z,46.30
2019-01-20T00:08:35.123Z,46.10
2019-01-20T00:09:35.044Z,42.90
2019-01-20T00:10:34.973Z,45.10
2019-01-20T00:11:34.902Z,44.70
2019-01-20T00:12:34.828Z,45.80
2019-01-20T00:13:34.823Z,45.20
2019-01-20T00:14:34.683Z,46.80
2019-01-20T00:15:34.612Z,49.10
2019-01-20T00:16:34.541Z,45.60
2019-01-20T00:17:34.467Z,45.40
2019-01-20T00:18:34.394Z,43.70
2019-01-20T00:19:34.322Z,44.70
2019-01-20T00:20:34.252Z,42.50
2019-01-20T00:21:34.178Z,40.00
2019-01-20T00:22:34.105Z,39.20
2019-01-20T00:23:34.032Z,40.20
2019-01-20T00:24:33.962Z,46.30
2019-01-20T00:25:33.888Z,38.40
2019-01-20T00:26:33.818Z,40.50
2019-01-20T00:27:33.745Z,38.40
2019-01-20T00:28:33.674Z,39.80
2019-01-20T00:29:33.602Z,39.10
2019-01-20T00:30:33.529Z,39.30
2019-01-20T00:31:33.458Z,43.70
2019-01-20T00:32:33.382Z,39.10
2019-01-20T00:33:33.320Z,40.70
2019-01-20T00:34:33.238Z,38.60
2019-01-20T00:35:33.164Z,41.90
2019-01-20T00:36:33.096Z,43.10
2019-01-20T00:37:33.021Z,43.70
2019-01-20T00:38:32.948Z,42.70
2019-01-20T00:39:32.876Z,38.30
2019-01-20T00:40:32.808Z,42.00
2019-01-20T00:41:32.740Z,40.70
2019-01-20T00:42:32.657Z,43.10
2019-01-20T00:43:32.592Z,38.20
2019-01-20T00:44:32.517Z,42.80
2019-01-20T00:45:32.440Z,39.50
2019-01-20T00:46:32.373Z,37.70
2019-01-20T00:47:32.299Z,44.00
2019-01-20T00:48:32.226Z,42.40
2019-01-20T00:49:32.186Z,41.40
2019-01-20T00:50:32.083Z,43.90
2019-01-20T00:51:32.009Z,42.70
2019-01-20T00:52:31.938Z,39.00
2019-01-20T00:53:31.866Z,39.60
2019-01-20T00:54:31.807Z,42.50
2019-01-20T00:55:31.718Z,43.60
2019-01-20T00:56:31.646Z,41.50
2019-01-20T00:57:31.575Z,42.00
2019-01-20T00:58:31.503Z,42.30
2019-01-20T00:59:31.431Z,44.60
2019-01-20T01:00:31.413Z,43.60
2019-01-20T01:01:31.288Z,46.00
2019-01-20T01:02:31.214Z,42.30
2019-01-20T01:03:31.142Z,43.10
2019-01-20T01:04:31.069Z,43.80
2019-01-20T01:05:30.999Z,40.40
2019-01-20T01:06:30.927Z,44.00
2019-01-20T01:07:30.850Z,46.10
2019-01-20T01:08:30.782Z,45.30
2019-01-20T01:09:30.708Z,46.50
2019-01-20T01:10:30.652Z,45.60
2019-01-20T01:11:31.855Z,46.30
2019-01-20T01:12:30.495Z,42.70
2019-01-20T01:13:30.418Z,41.40
2019-01-20T01:14:30.346Z,46.10
2019-01-20T01:15:30.274Z,45.60
2019-01-20T01:16:30.197Z,44.00
2019-01-20T01:17:30.131Z,45.70
2019-01-20T01:18:30.057Z,48.90
2019-01-20T01:19:29.987Z,46.50
2019-01-20T01:20:29.916Z,48.10
2019-01-20T01:21:29.840Z,54.40
2019-01-20T01:22:29.771Z,50.70
2019-01-20T01:23:29.694Z,47.30
2019-01-20T01:24:29.673Z,48.50
2019-01-20T01:25:29.550Z,50.30
2019-01-20T01:26:29.478Z,45.90
2019-01-20T01:27:29.410Z,48.70
2019-01-20T01:28:29.336Z,49.10
2019-01-20T01:29:29.262Z,46.60
2019-01-20T01:30:29.195Z,48.40
2019-01-20T01:31:29.120Z,46.30
2019-01-20T01:32:29.045Z,46.40
2019-01-20T01:33:28.972Z,47.40
2019-01-20T01:34:28.900Z,49.30
2019-01-20T01:35:28.829Z,51.20
2019-01-20T01:36:28.756Z,51.00
2019-01-20T01:37:28.684Z,49.70
2019-01-20T01:38:28.611Z,49.70
2019-01-20T01:39:28.537Z,51.40
2019-01-20T01:40:28.468Z,50.20
2019-01-20T01:41:28.438Z,47.10
2019-01-20T01:42:28.321Z,43.80
2019-01-20T01:43:28.248Z,51.10
2019-01-20T01:44:28.178Z,49.70
2019-01-20T01:45:28.106Z,50.90
2019-01-20T01:46:28.032Z,49.00
2019-01-20T01:47:27.959Z,50.50
2019-01-20T01:48:27.886Z,46.90
2019-01-20T01:49:27.818Z,47.90
2019-01-20T01:50:27.741Z,47.40
2019-01-20T01:51:27.672Z,49.00
2019-01-20T01:52:27.598Z,46.60
2019-01-20T01:53:27.526Z,50.00
2019-01-20T01:54:27.452Z,49.70
2019-01-20T01:55:27.384Z,49.60
2019-01-20T01:56:27.309Z,45.80
2019-01-20T01:57:27.235Z,50.10
2019-01-20T01:58:27.163Z,49.00
2019-01-20T01:59:27.093Z,46.80
2019-01-20T02:00:27.017Z,53.30
2019-01-20T02:01:26.947Z,47.50
2019-01-20T02:02:26.872Z,48.50
2019-01-20T02:03:26.805Z,45.60
2019-01-20T02:04:26.734Z,46.70
2019-01-20T02:05:26.656Z,52.10
2019-01-20T02:06:26.589Z,47.40
2019-01-20T02:07:26.513Z,46.30
2019-01-20T02:08:26.441Z,46.30
2019-01-20T02:09:26.367Z,45.80
2019-01-20T02:10:26.295Z,44.60
2019-01-20T02:11:26.220Z,43.30
2019-01-20T02:12:26.148Z,49.10
2019-01-20T02:13:26.076Z,45.50
2019-01-20T02:14:26.004Z,45.40
2019-01-20T02:15:25.934Z,47.50
2019-01-20T02:16:25.862Z,48.90
2019-01-20T02:17:25.788Z,47.80
2019-01-20T02:18:25.726Z,49.40
2019-01-20T02:19:25.644Z,47.60
2019-01-20T02:20:25.572Z,49.00
2019-01-20T02:21:25.502Z,48.40
2019-01-20T02:22:25.424Z,49.10
2019-01-20T02:23:25.354Z,46.90
2019-01-20T02:24:25.279Z,46.50
2019-01-20T02:25:25.208Z,44.70
2019-01-20T02:26:25.136Z,41.90
2019-01-20T02:27:25.065Z,48.30
2019-01-20T02:28:24.992Z,43.70
2019-01-20T02:29:24.923Z,44.80
2019-01-20T02:30:24.849Z,45.50
2019-01-20T02:31:24.774Z,45.50
2019-01-20T02:32:24.705Z,48.70
2019-01-20T02:33:24.631Z,47.70
2019-01-20T02:34:24.572Z,43.90
2019-01-20T02:35:24.488Z,43.50
2019-01-20T02:36:24.538Z,46.60
2019-01-20T02:37:24.339Z,43.20
2019-01-20T02:38:24.289Z,44.80
2019-01-20T02:39:24.197Z,43.30
2019-01-20T02:40:24.123Z,46.20
2019-01-20T02:41:24.054Z,44.90
2019-01-20T02:42:23.980Z,42.50
2019-01-20T02:43:23.908Z,43.90
2019-01-20T02:44:23.836Z,46.80
2019-01-20T02:45:23.761Z,45.70
2019-01-20T02:46:23.690Z,45.10
2019-01-20T02:47:23.616Z,49.40
2019-01-20T02:48:23.548Z,45.30
2019-01-20T02:49:23.469Z,44.00
2019-01-20T02:50:23.402Z,49.30
2019-01-20T02:51:23.327Z,48.00
2019-01-20T02:52:23.254Z,46.70
2019-01-20T02:53:23.181Z,44.60
2019-01-20T02:54:23.111Z,46.70
2019-01-20T02:55:23.039Z,46.80
2019-01-20T02:56:22.972Z,43.90
2019-01-20T02:57:22.898Z,46.90
2019-01-20T02:58:22.821Z,45.80
2019-01-20T02:59:22.747Z,46.30
2019-01-20T03:00:22.675Z,43.30
2019-01-20T03:01:22.603Z,46.10
2019-01-20T03:02:22.532Z,43.90
2019-01-20T03:03:22.460Z,46.20
2019-01-20T03:04:22.389Z,47.10
2019-01-20T03:05:22.313Z,42.70
2019-01-20T03:06:22.242Z,44.00
2019-01-20T03:07:22.169Z,48.00
2019-01-20T03:08:22.101Z,43.50
2019-01-20T03:09:22.030Z,46.60
2019-01-20T03:10:21.951Z,47.20
2019-01-20T03:11:21.884Z,45.50
2019-01-20T03:12:21.809Z,44.50
2019-01-20T03:13:21.737Z,45.50
2019-01-20T03:14:21.663Z,45.40
2019-01-20T03:15:21.586Z,43.80
2019-01-20T03:16:21.517Z,44.90
2019-01-20T03:17:21.447Z,41.40
2019-01-20T03:18:21.374Z,46.20
2019-01-20T03:19:21.303Z,42.80
2019-01-20T03:20:21.229Z,43.10
2019-01-20T03:21:21.160Z,44.90
2019-01-20T03:22:21.083Z,42.90
2019-01-20T03:23:21.011Z,43.80
2019-01-20T03:24:20.942Z,45.30
2019-01-20T03:25:20.866Z,44.60
2019-01-20T03:26:20.796Z,42.10
2019-01-20T03:27:20.722Z,44.00
2019-01-20T03:28:20.651Z,42.00
2019-01-20T03:29:20.579Z,40.40
2019-01-20T03:30:20.617Z,40.20
2019-01-20T03:31:20.438Z,46.80
2019-01-20T03:32:20.362Z,42.60
2019-01-20T03:33:20.337Z,41.90
2019-01-20T03:34:20.214Z,42.00
2019-01-20T03:35:20.142Z,42.50
2019-01-20T03:36:20.068Z,41.70
2019-01-20T03:37:20.005Z,45.70
2019-01-20T03:38:19.925Z,41.00
2019-01-20T03:39:19.852Z,41.80
2019-01-20T03:40:19.782Z,44.10
2019-01-20T03:41:19.707Z,41.70
2019-01-20T03:42:19.636Z,44.60
2019-01-20T03:43:19.561Z,42.90
2019-01-20T03:44:19.492Z,44.20
2019-01-20T03:45:19.419Z,44.00
2019-01-20T03:46:19.349Z,43.10
2019-01-20T03:47:19.274Z,40.20
2019-01-20T03:48:19.202Z,44.40
2019-01-20T03:49:19.137Z,45.40
2019-01-20T03:50:19.056Z,44.70
2019-01-20T03:51:18.985Z,46.30
2019-01-20T03:52:18.913Z,48.10
2019-01-20T03:53:18.841Z,47.10
2019-01-20T03:54:18.767Z,43.80
2019-01-20T03:55:18.704Z,43.50
2019-01-20T03:56:18.626Z,43.40
2019-01-20T03:57:18.550Z,45.60
2019-01-20T03:58:18.478Z,41.20
2019-01-20T03:59:18.404Z,44.10
2019-01-20T04:00:18.327Z,47.00
2019-01-20T04:01:18.273Z,45.70
2019-01-20T04:02:18.187Z,45.90
2019-01-20T04:03:18.119Z,45.90
2019-01-20T04:04:18.045Z,46.40
2019-01-20T04:05:17.965Z,43.80
2019-01-20T04:06:17.897Z,42.40
2019-01-20T04:07:17.823Z,43.70
2019-01-20T04:08:17.750Z,42.40
2019-01-20T04:09:17.679Z,43.00
2019-01-20T04:10:17.607Z,41.80
2019-01-20T04:11:17.536Z,41.20
2019-01-20T04:12:20.660Z,40.50
2019-01-20T04:13:17.387Z,41.90
2019-01-20T04:14:17.318Z,42.60
2019-01-20T04:15:17.325Z,38.00
2019-01-20T04:16:17.172Z,40.10
2019-01-20T04:17:17.096Z,39.30
2019-01-20T04:18:17.026Z,40.00
2019-01-20T04:19:16.953Z,38.70
2019-01-20T04:20:16.883Z,38.90
2019-01-20T04:21:16.809Z,41.20
2019-01-20T04:22:16.741Z,39.80
2019-01-20T04:23:16.663Z,39.80
2019-01-20T04:24:16.595Z,37.90
2019-01-20T04:25:16.520Z,40.00
2019-01-20T04:26:16.451Z,40.40
2019-01-20T04:27:16.369Z,39.20
2019-01-20T04:28:16.300Z,35.80
2019-01-20T04:29:16.226Z,38.10
2019-01-20T04:30:16.157Z,41.20
2019-01-20T04:31:16.081Z,38.70
2019-01-20T04:32:16.011Z,39.30
2019-01-20T04:33:15.938Z,39.30
2019-01-20T04:34:15.864Z,39.30
2019-01-20T04:35:15.791Z,39.80
2019-01-20T04:36:15.716Z,38.20
2019-01-20T04:37:15.664Z,39.20
2019-01-20T04:38:15.576Z,37.60
2019-01-20T04:39:15.580Z,38.70
2019-01-20T04:40:15.429Z,40.30
2019-01-20T04:41:15.391Z,38.20
2019-01-20T04:42:15.286Z,42.90
2019-01-20T04:43:15.212Z,44.40
2019-01-20T04:44:15.143Z,40.40
2019-01-20T04:45:15.066Z,40.60
2019-01-20T04:46:14.997Z,38.40
2019-01-20T04:47:14.931Z,39.70
2019-01-20T04:48:14.848Z,38.90
2019-01-20T04:49:14.782Z,38.60
2019-01-20T04:50:14.704Z,40.40
2019-01-20T04:51:14.633Z,39.80
2019-01-20T04:52:14.557Z,41.90
2019-01-20T04:53:14.518Z,40.30
2019-01-20T04:54:14.419Z,37.80
2019-01-20T04:55:14.341Z,39.80
2019-01-20T04:56:14.275Z,39.10
2019-01-20T04:57:14.193Z,37.20
2019-01-20T04:58:14.119Z,41.20
2019-01-20T04:59:14.049Z,36.10
2019-01-20T05:00:13.974Z,38.90
2019-01-20T05:01:13.905Z,37.30
2019-01-20T05:02:13.827Z,37.30
2019-01-20T05:03:13.760Z,40.10
2019-01-20T05:04:13.687Z,39.00
2019-01-20T05:05:13.614Z,38.30
2019-01-20T05:06:13.539Z,41.00
2019-01-20T05:07:13.468Z,38.30
2019-01-20T05:08:13.397Z,39.40
2019-01-20T05:09:13.320Z,37.90
2019-01-20T05:10:13.251Z,38.00
2019-01-20T05:11:13.176Z,37.30
2019-01-20T05:12:13.107Z,37.10
2019-01-20T05:13:13.033Z,38.10
2019-01-20T05:14:12.959Z,38.10
2019-01-20T05:15:12.884Z,36.70
2019-01-20T05:16:12.815Z,41.40
2019-01-20T05:17:12.744Z,39.60
2019-01-20T05:18:12.672Z,37.90
2019-01-20T05:19:12.597Z,36.20
2019-01-20T05:20:12.524Z,39.10
2019-01-20T05:21:12.457Z,37.60
2019-01-20T05:22:12.377Z,37.30
2019-01-20T05:23:12.302Z,40.40
2019-01-20T05:24:12.233Z,38.20
2019-01-20T05:25:12.159Z,38.20
2019-01-20T05:26:12.087Z,36.80
2019-01-20T05:27:12.017Z,39.60
2019-01-20T05:28:11.941Z,37.80
2019-01-20T05:29:11.869Z,38.20
2019-01-20T05:30:11.801Z,36.70
2019-01-20T05:31:11.725Z,38.00
2019-01-20T05:32:11.654Z,37.20
2019-01-20T05:33:11.577Z,36.70
2019-01-20T05:34:11.505Z,36.00
2019-01-20T05:35:11.434Z,32.70
2019-01-20T05:36:11.363Z,39.00
2019-01-20T05:37:11.285Z,36.20
2019-01-20T05:38:11.216Z,34.10
2019-01-20T05:39:11.142Z,35.30
2019-01-20T05:40:11.073Z,33.00
2019-01-20T05:41:10.996Z,33.10
2019-01-20T05:42:10.923Z,37.50
2019-01-20T05:43:10.853Z,37.20
2019-01-20T05:44:10.782Z,37.00
2019-01-20T05:45:10.751Z,36.80
2019-01-20T05:46:10.631Z,37.20
2019-01-20T05:47:10.557Z,36.50
2019-01-20T05:48:10.491Z,38.10
2019-01-20T05:49:10.417Z,39.60
2019-01-20T05:50:10.345Z,38.30
2019-01-20T05:51:10.277Z,39.50
2019-01-20T05:52:10.199Z,36.30
2019-01-20T05:53:10.123Z,39.60
2019-01-20T05:54:10.056Z,38.10
2019-01-20T05:55:09.977Z,39.30
2019-01-20T05:56:09.904Z,40.00
2019-01-20T05:57:09.835Z,37.90
2019-01-20T05:58:09.763Z,39.80
2019-01-20T05:59:09.689Z,36.30
2019-01-20T06:00:09.616Z,42.90
2019-01-20T06:01:09.545Z,41.40
2019-01-20T06:02:09.519Z,41.60
2019-01-20T06:03:09.406Z,42.20
2019-01-20T06:04:09.327Z,37.70
2019-01-20T06:05:09.253Z,40.90
2019-01-20T06:06:09.180Z,42.10
2019-01-20T06:07:09.106Z,41.40
2019-01-20T06:08:09.038Z,39.90
2019-01-20T06:09:08.964Z,46.10
2019-01-20T06:10:08.891Z,41.80
2019-01-20T06:11:08.817Z,41.60
2019-01-20T06:12:08.745Z,42.40
2019-01-20T06:13:08.667Z,42.70
2019-01-20T06:14:08.599Z,44.90
2019-01-20T06:15:08.528Z,42.40
2019-01-20T06:16:08.455Z,43.50
2019-01-20T06:17:08.381Z,43.40
2019-01-20T06:18:08.308Z,43.60
2019-01-20T06:19:08.243Z,43.50
2019-01-20T06:20:08.163Z,39.50
2019-01-20T06:21:08.089Z,42.60
2019-01-20T06:22:08.016Z,43.30
2019-01-20T06:23:07.945Z,42.00
2019-01-20T06:24:07.873Z,45.00
2019-01-20T06:25:07.796Z,39.50
2019-01-20T06:26:07.727Z,42.90
2019-01-20T06:27:07.652Z,43.80
2019-01-20T06:28:07.585Z,40.20
2019-01-20T06:29:07.506Z,41.40
2019-01-20T06:30:07.433Z,41.40
2019-01-20T06:31:07.361Z,41.40
2019-01-20T06:32:07.289Z,43.70
2019-01-20T06:33:07.217Z,41.80
2019-01-20T06:34:07.155Z,41.80
2019-01-20T06:35:07.077Z,42.70
2019-01-20T06:36:06.997Z,40.70
2019-01-20T06:37:06.926Z,46.10
2019-01-20T06:38:06.852Z,46.30
2019-01-20T06:39:06.780Z,47.70
2019-01-20T06:40:06.704Z,50.60
2019-01-20T06:41:06.632Z,47.10
2019-01-20T06:42:06.563Z,45.60
2019-01-20T06:43:06.488Z,42.70
2019-01-20T06:44:06.412Z,45.90
2019-01-20T06:45:06.341Z,42.70
2019-01-20T06:46:06.269Z,45.40
2019-01-20T06:47:06.198Z,41.10
2019-01-20T06:48:06.124Z,42.60
2019-01-20T06:49:06.049Z,43.10
2019-01-20T06:50:05.978Z,40.40
2019-01-20T06:51:05.908Z,42.70
2019-01-20T06:52:05.830Z,38.20
2019-01-20T06:53:05.759Z,42.70
2019-01-20T06:54:05.689Z,42.80
2019-01-20T06:55:05.621Z,41.60
2019-01-20T06:56:05.542Z,39.00
2019-01-20T06:57:05.469Z,42.30
2019-01-20T06:58:05.399Z,42.60
2019-01-20T06:59:05.324Z,38.90
2019-01-20T07:00:05.251Z,40.70
2019-01-20T07:01:05.187Z,41.40
2019-01-20T07:02:05.102Z,39.90
2019-01-20T07:03:05.034Z,41.50
2019-01-20T07:04:04.962Z,38.30
2019-01-20T07:05:04.888Z,42.30
2019-01-20T07:06:04.818Z,41.70
2019-01-20T07:07:04.741Z,43.30
2019-01-20T07:08:04.671Z,41.90
2019-01-20T07:09:04.597Z,41.50
2019-01-20T07:10:04.519Z,40.60
2019-01-20T07:11:04.448Z,40.20
2019-01-20T07:12:04.377Z,45.60
2019-01-20T07:13:09.209Z,43.80
2019-01-20T07:14:04.230Z,43.80
2019-01-20T07:15:04.159Z,44.50
2019-01-20T07:16:04.082Z,43.90
2019-01-20T07:17:04.012Z,46.50
2019-01-20T07:18:03.940Z,42.70
2019-01-20T07:19:03.876Z,43.10
2019-01-20T07:20:03.790Z,40.10
2019-01-20T07:21:03.721Z,38.60
2019-01-20T07:22:03.653Z,40.00
2019-01-20T07:23:03.576Z,42.30
2019-01-20T07:24:03.503Z,39.20
2019-01-20T07:25:03.429Z,36.60
2019-01-20T07:26:03.362Z,41.40
2019-01-20T07:27:03.282Z,45.60
2019-01-20T07:28:03.215Z,41.00
2019-01-20T07:29:03.135Z,37.80
2019-01-20T07:30:03.065Z,40.60
2019-01-20T07:31:02.995Z,39.40
2019-01-20T07:32:02.936Z,40.60
2019-01-20T07:33:02.846Z,40.40
2019-01-20T07:34:02.773Z,40.20
2019-01-20T07:35:02.701Z,41.30
2019-01-20T07:36:02.637Z,42.60
2019-01-20T07:37:02.551Z,42.10
2019-01-20T07:38:02.479Z,42.70
2019-01-20T07:39:02.410Z,44.60
2019-01-20T07:40:02.341Z,40.10
2019-01-20T07:41:02.273Z,39.40
2019-01-20T07:42:02.189Z,42.60
2019-01-20T07:43:02.117Z,43.70
2019-01-20T07:44:02.043Z,37.50
2019-01-20T07:45:01.983Z,42.90
2019-01-20T07:46:01.895Z,44.40
2019-01-20T07:47:01.825Z,39.50
2019-01-20T07:48:01.758Z,44.20
2019-01-20T07:49:01.681Z,44.90
2019-01-20T07:50:01.617Z,39.50
2019-01-20T07:51:01.535Z,45.80
2019-01-20T07:52:01.461Z,44.10
2019-01-20T07:53:01.386Z,40.30
2019-01-20T07:54:01.315Z,41.20
2019-01-20T07:55:01.242Z,43.50
2019-01-20T07:56:01.171Z,47.00
2019-01-20T07:57:01.093Z,42.50
2019-01-20T07:58:01.021Z,42.20
2019-01-20T07:59:00.949Z,40.60
2019-01-20T08:00:00.876Z,43.20
2019-01-20T08:01:00.803Z,39.50
2019-01-20T08:02:00.733Z,42.60
2019-01-20T08:03:00.657Z,40.40
2019-01-20T08:04:00.584Z,41.20
2019-01-20T08:05:00.510Z,39.30
2019-01-20T08:06:00.442Z,42.50
2019-01-20T08:07:00.367Z,44.80
2019-01-20T08:08:00.297Z,47.60
2019-01-20T08:09:00.221Z,46.60
2019-01-20T08:10:00.236Z,44.00
2019-01-20T08:11:00.077Z,43.10
2019-01-20T08:12:00.005Z,45.50
2019-01-20T08:12:59.928Z,42.70
2019-01-20T08:13:59.858Z,47.50
2019-01-20T08:14:59.782Z,40.70
2019-01-20T08:15:59.711Z,42.80
2019-01-20T08:16:59.639Z,43.10
2019-01-20T08:17:59.563Z,43.80
2019-01-20T08:18:59.490Z,48.00
2019-01-20T08:19:59.418Z,43.20
2019-01-20T08:20:59.350Z,45.00
2019-01-20T08:21:59.272Z,42.60
2019-01-20T08:22:59.201Z,45.50
2019-01-20T08:23:59.128Z,43.60
2019-01-20T08:24:59.054Z,45.00
2019-01-20T08:25:58.980Z,45.90
2019-01-20T08:26:58.910Z,44.70
2019-01-20T08:27:58.837Z,44.20
2019-01-20T08:28:58.763Z,43.00
2019-01-20T08:29:58.689Z,44.40
2019-01-20T08:30:58.616Z,42.80
2019-01-20T08:31:58.543Z,44.50
2019-01-20T08:32:58.471Z,46.00
2019-01-20T08:33:58.396Z,46.50
2019-01-20T08:34:58.323Z,51.40
2019-01-20T08:35:58.254Z,52.80
2019-01-20T08:36:58.182Z,51.00
2019-01-20T08:37:58.106Z,56.90
2019-01-20T08:38:58.032Z,52.60
2019-01-20T08:39:57.959Z,51.20
2019-01-20T08:40:57.886Z,50.00
2019-01-20T08:41:57.816Z,46.70
2019-01-20T08:42:57.741Z,50.10
2019-01-20T08:43:57.669Z,51.00
2019-01-20T08:44:57.597Z,45.10
2019-01-20T08:45:57.527Z,46.00
2019-01-20T08:46:57.453Z,41.50
2019-01-20T08:47:57.952Z,40.00
2019-01-20T08:48:57.303Z,42.60
2019-01-20T08:49:57.229Z,45.80
2019-01-20T08:50:57.162Z,42.50
2019-01-20T08:51:57.086Z,46.50
2019-01-20T08:52:57.015Z,45.00
2019-01-20T08:53:56.939Z,48.10
2019-01-20T08:54:56.866Z,47.40
2019-01-20T08:55:57.367Z,45.20
2019-01-20T08:56:56.724Z,48.40
2019-01-20T08:57:56.655Z,45.00
2019-01-20T08:58:56.576Z,44.90
2019-01-20T08:59:56.505Z,46.00
2019-01-20T09:00:56.432Z,48.70
2019-01-20T09:01:56.358Z,46.00
2019-01-20T09:02:56.283Z,46.90
2019-01-20T09:03:56.212Z,45.10
2019-01-20T09:04:56.140Z,48.50
2019-01-20T09:05:56.068Z,49.20
2019-01-20T09:06:55.994Z,46.20
2019-01-20T09:07:55.924Z,47.60
2019-01-20T09:08:55.849Z,45.00
2019-01-20T09:09:55.775Z,45.00
2019-01-20T09:10:55.705Z,46.20
2019-01-20T09:11:55.629Z,48.20
2019-01-20T09:12:55.557Z,43.70
2019-01-20T09:13:55.487Z,41.60
2019-01-20T09:14:55.411Z,44.20
2019-01-20T09:15:55.340Z,41.10
2019-01-20T09:16:55.267Z,46.40
2019-01-20T09:17:55.212Z,43.10
2019-01-20T09:18:55.123Z,42.90
2019-01-20T09:19:55.049Z,42.10
2019-01-20T09:20:54.974Z,45.20
2019-01-20T09:21:54.904Z,48.70
2019-01-20T09:22:54.831Z,45.00
2019-01-20T09:23:54.759Z,48.00
2019-01-20T09:24:54.688Z,44.20
2019-01-20T09:25:54.614Z,45.90
2019-01-20T09:26:54.542Z,42.60
2019-01-20T09:27:54.471Z,46.30
2019-01-20T09:28:54.397Z,46.80
2019-01-20T09:29:54.329Z,41.50
2019-01-20T09:30:54.256Z,47.80
2019-01-20T09:31:54.182Z,44.70
2019-01-20T09:32:54.109Z,41.50
2019-01-20T09:33:54.035Z,47.10
2019-01-20T09:34:53.960Z,45.30
2019-01-20T09:35:53.889Z,42.20
2019-01-20T09:36:53.822Z,46.10
2019-01-20T09:37:53.746Z,47.90
2019-01-20T09:38:53.687Z,41.70
2019-01-20T09:39:53.604Z,43.00
2019-01-20T09:40:53.528Z,46.50
2019-01-20T09:41:53.456Z,43.30
2019-01-20T09:42:53.385Z,41.50
2019-01-20T09:43:53.315Z,42.80
2019-01-20T09:44:53.238Z,41.40
2019-01-20T09:45:53.166Z,40.90
2019-01-20T09:46:53.093Z,42.40
2019-01-20T09:47:53.023Z,40.90
2019-01-20T09:48:52.955Z,41.80
2019-01-20T09:49:52.882Z,45.80
2019-01-20T09:50:52.806Z,44.90
2019-01-20T09:51:52.734Z,41.90
2019-01-20T09:52:53.813Z,41.80
2019-01-20T09:53:52.589Z,41.90
2019-01-20T09:54:52.517Z,43.60
2019-01-20T09:55:52.445Z,40.40
2019-01-20T09:56:52.370Z,41.80
2019-01-20T09:57:52.301Z,43.50
2019-01-20T09:58:52.230Z,44.50
2019-01-20T09:59:52.155Z,39.20
2019-01-20T10:00:52.087Z,41.90
2019-01-20T10:01:52.014Z,41.50
2019-01-20T10:02:51.944Z,40.10
2019-01-20T10:03:51.868Z,41.70
2019-01-20T10:04:51.798Z,40.40
2019-01-20T10:05:51.724Z,44.30
2019-01-20T10:06:51.652Z,44.70
2019-01-20T10:07:51.583Z,45.80
2019-01-20T10:08:51.505Z,43.10
2019-01-20T10:09:51.444Z,42.80
2019-01-20T10:10:51.369Z,45.00
2019-01-20T10:11:51.313Z,41.30
2019-01-20T10:12:51.257Z,44.10
2019-01-20T10:13:54.905Z,40.30
2019-01-20T10:14:51.078Z,42.70
2019-01-20T10:15:52.320Z,41.50
2019-01-20T10:16:50.934Z,47.80
2019-01-20T10:17:50.863Z,42.40
2019-01-20T10:18:50.793Z,42.30
2019-01-20T10:19:50.728Z,43.10
2019-01-20T10:20:50.652Z,43.00
2019-01-20T10:21:50.577Z,40.60
2019-01-20T10:22:50.505Z,38.50
2019-01-20T10:23:50.431Z,39.20
2019-01-20T10:24:50.361Z,41.30
2019-01-20T10:25:50.292Z,41.60
2019-01-20T10:26:50.221Z,40.50
2019-01-20T10:27:50.148Z,41.70
2019-01-20T10:28:50.079Z,39.30
2019-01-20T10:29:50.006Z,41.70
2019-01-20T10:30:49.941Z,38.50
2019-01-20T10:31:49.865Z,40.50
2019-01-20T10:32:49.797Z,41.90
2019-01-20T10:33:49.722Z,41.40
2019-01-20T10:34:49.652Z,41.70
2019-01-20T10:35:49.580Z,41.60
2019-01-20T10:36:49.507Z,44.60
2019-01-20T10:37:49.436Z,43.10
2019-01-20T10:38:49.364Z,42.60
2019-01-20T10:39:49.294Z,41.30
2019-01-20T10:40:49.224Z,38.40
2019-01-20T10:41:49.150Z,38.50
2019-01-20T10:42:49.079Z,44.10
2019-01-20T10:43:49.008Z,41.60
2019-01-20T10:44:48.938Z,40.50
2019-01-20T10:45:48.867Z,39.70
2019-01-20T10:46:48.796Z,39.80
2019-01-20T10:47:48.725Z,39.10
2019-01-20T10:48:48.652Z,45.10
2019-01-20T10:49:48.580Z,39.50
2019-01-20T10:50:48.510Z,43.80
2019-01-20T10:51:48.436Z,42.60
2019-01-20T10:52:48.371Z,39.20
2019-01-20T10:53:53.007Z,41.30
2019-01-20T10:54:48.223Z,42.90
2019-01-20T10:55:48.154Z,44.30
2019-01-20T10:56:48.087Z,41.80
2019-01-20T10:57:48.017Z,40.50
2019-01-20T10:58:47.942Z,42.60
2019-01-20T10:59:47.872Z,44.40
2019-01-20T11:00:47.800Z,41.80
2019-01-20T11:01:47.730Z,44.70
2019-01-20T11:02:47.660Z,44.50
2019-01-20T11:03:47.591Z,47.00
2019-01-20T11:04:47.518Z,44.80
2019-01-20T11:05:47.446Z,43.90
2019-01-20T11:06:47.376Z,44.70
2019-01-20T11:07:47.305Z,40.90
2019-01-20T11:08:47.240Z,46.40
2019-01-20T11:09:47.168Z,46.20
2019-01-20T11:10:47.095Z,42.90
2019-01-20T11:11:47.024Z,44.50
2019-01-20T11:12:46.952Z,45.10
2019-01-20T11:13:46.881Z,45.70
2019-01-20T11:14:46.813Z,46.40
2019-01-20T11:15:46.743Z,42.70
2019-01-20T11:16:46.667Z,42.00
2019-01-20T11:17:46.600Z,44.40
2019-01-20T11:18:46.527Z,44.90
2019-01-20T11:19:46.460Z,45.00
2019-01-20T11:20:46.386Z,43.40
2019-01-20T11:21:46.317Z,42.10
2019-01-20T11:22:46.246Z,43.20
2019-01-20T11:23:46.173Z,44.00
2019-01-20T11:24:46.103Z,40.60
2019-01-20T11:25:46.035Z,43.00
2019-01-20T11:26:45.963Z,41.80
2019-01-20T11:27:45.895Z,41.30
2019-01-20T11:28:45.823Z,41.10
2019-01-20T11:29:45.754Z,40.70
2019-01-20T11:30:45.684Z,39.80
2019-01-20T11:31:45.612Z,40.80
2019-01-20T11:32:45.539Z,42.40
2019-01-20T11:33:45.472Z,43.00
2019-01-20T11:34:45.396Z,44.90
2019-01-20T11:35:45.327Z,40.80
2019-01-20T11:36:45.258Z,41.10
2019-01-20T11:37:45.185Z,44.90
2019-01-20T11:38:45.120Z,40.20
2019-01-20T11:39:45.042Z,42.50
2019-01-20T11:40:44.974Z,40.70
2019-01-20T11:41:44.906Z,42.40
2019-01-20T11:42:44.833Z,40.80
2019-01-20T11:43:44.759Z,41.10
2019-01-20T11:44:44.702Z,38.90
2019-01-20T11:45:44.623Z,36.90
2019-01-20T11:46:44.548Z,41.40
2019-01-20T11:47:44.479Z,37.10
2019-01-20T11:48:44.409Z,39.00
2019-01-20T11:49:44.342Z,39.00
2019-01-20T11:50:44.267Z,36.70
2019-01-20T11:51:44.196Z,40.40
2019-01-20T11:52:44.124Z,37.60
2019-01-20T11:53:44.067Z,39.20
2019-01-20T11:54:43.987Z,39.10
2019-01-20T11:55:43.916Z,42.50
2019-01-20T11:56:43.846Z,38.10
2019-01-20T11:57:43.776Z,41.30
2019-01-20T11:58:43.704Z,38.90
2019-01-20T11:59:43.635Z,38.70
2019-01-20T12:00:43.565Z,40.10
2019-01-20T12:01:43.495Z,38.20
2019-01-20T12:02:43.426Z,40.70
2019-01-20T12:03:43.353Z,40.40
2019-01-20T12:04:43.280Z,36.50
2019-01-20T12:05:43.212Z,41.70
2019-01-20T12:06:43.142Z,39.20
2019-01-20T12:07:43.082Z,39.00
2019-01-20T12:08:43.003Z,41.80
2019-01-20T12:09:42.932Z,37.60
2019-01-20T12:10:42.862Z,41.90
2019-01-20T12:11:42.792Z,39.90
2019-01-20T12:12:42.723Z,38.20
2019-01-20T12:13:42.650Z,40.30
2019-01-20T12:14:42.584Z,41.70
2019-01-20T12:15:42.513Z,39.30
2019-01-20T12:16:42.441Z,42.60
2019-01-20T12:17:42.370Z,40.30
2019-01-20T12:18:42.304Z,42.40
2019-01-20T12:19:42.231Z,41.30
2019-01-20T12:20:42.162Z,38.60
2019-01-20T12:21:42.091Z,40.60
2019-01-20T12:22:42.022Z,41.50
2019-01-20T12:23:41.951Z,41.70
2019-01-20T12:24:41.878Z,41.40
2019-01-20T12:25:41.811Z,45.80
2019-01-20T12:26:41.742Z,44.80
2019-01-20T12:27:41.672Z,41.20
2019-01-20T12:28:41.602Z,43.00
2019-01-20T12:29:41.531Z,41.80
2019-01-20T12:30:41.462Z,40.00
2019-01-20T12:31:41.388Z,45.10
2019-01-20T12:32:41.319Z,42.90
2019-01-20T12:33:41.249Z,42.50
2019-01-20T12:34:41.179Z,47.90
2019-01-20T12:35:41.108Z,42.50
2019-01-20T12:36:41.038Z,42.70
2019-01-20T12:37:40.967Z,44.00
2019-01-20T12:38:40.936Z,45.40
2019-01-20T12:39:40.827Z,42.70
2019-01-20T12:40:40.758Z,41.90
2019-01-20T12:41:40.688Z,41.40
2019-01-20T12:42:40.616Z,41.50
2019-01-20T12:43:40.547Z,42.60
2019-01-20T12:44:40.478Z,40.10
2019-01-20T12:45:40.409Z,44.90
2019-01-20T12:46:40.337Z,40.80
2019-01-20T12:47:40.266Z,42.10
2019-01-20T12:48:40.202Z,48.60
2019-01-20T12:49:40.127Z,42.30
2019-01-20T12:50:40.057Z,40.00
2019-01-20T12:51:39.989Z,42.60